Ulan Bator, Mongolia
Current Conditions -  °F | °C
As of 11:30 AM on Saturday 25 Oct 2014 (Local Time) from ZMUB Reporting Station
Sand / Dust Storm Sand / Dust Storm  
Wind Chill: -6°   Ceiling: Unl
Heat Index:   Visibility: 6mi
Dew Point: -7°   Wind: 22mph
Humidity: 56%   Direction: 360°N
Pressure: 30.12"   Gusts: 36mph
Location:  47.92°N, 106.91°E
Report Text: ZMUB 250330Z 36010G16MPS 320V020 9999 DRDS SCT033 01/M07 Q1020 BECMG 6000 BLDS RMK QFE657.1 53 MOP
Loading
Personal Weather Stations






























Interactive Weather Map
Tropical Storm Tracking
New forecast layout! Learn more

10-Day Weather Forecast

Advertisements
Track Severe Weather on mobile